createdAt,value
2018-11-28T00:05:01.184Z,100195.56
2018-11-28T00:11:06.374Z,100192.48
2018-11-28T00:17:11.153Z,100195.36
2018-11-28T00:23:16.861Z,100192.25
2018-11-28T00:31:53.850Z,100182.36
2018-11-28T00:37:58.608Z,100183.66
2018-11-28T00:44:04.118Z,100193.19
2018-11-28T00:50:13.686Z,100196.14
2018-11-28T00:56:18.762Z,100196.13
2018-11-28T01:02:23.494Z,100200.85
2018-11-28T01:08:28.597Z,100196.03
2018-11-28T01:14:33.363Z,100198.16
2018-11-28T01:20:38.978Z,100197.84
2018-11-28T01:26:44.098Z,100198.59
2018-11-28T01:32:49.288Z,100203.31
2018-11-28T01:38:54.428Z,100209.92
2018-11-28T01:44:59.201Z,100209.13
2018-11-28T01:51:04.171Z,100204.09
2018-11-28T01:57:09.230Z,100215.28
2018-11-28T02:03:13.939Z,100212.80
2018-11-28T02:09:19.519Z,100218.02
2018-11-28T02:15:25.897Z,100212.55
2018-11-28T02:21:31.252Z,100203.53
2018-11-28T02:27:36.057Z,100203.35
2018-11-28T02:33:41.274Z,100180.65
2018-11-28T02:39:46.052Z,100185.75
2018-11-28T02:46:07.527Z,100199.52
2018-11-28T02:52:12.217Z,100192.46
2018-11-28T02:58:17.050Z,100184.78
2018-11-28T03:04:22.147Z,100185.97
2018-11-28T03:10:27.723Z,100184.48
2018-11-28T03:16:32.461Z,100171.82
2018-11-28T03:22:37.251Z,100167.03
2018-11-28T03:28:41.992Z,100175.70
2018-11-28T03:34:46.774Z,100175.16
2018-11-28T03:40:51.859Z,100172.11
2018-11-28T03:46:56.924Z,100165.44
2018-11-28T03:53:01.927Z,100170.62
2018-11-28T03:59:07.753Z,100164.60
2018-11-28T04:05:13.293Z,100167.53
2018-11-28T04:11:18.310Z,100170.56
2018-11-28T04:17:30.050Z,100168.63
2018-11-28T04:23:35.392Z,100172.09
2018-11-28T04:29:40.642Z,100173.41
2018-11-28T04:35:45.728Z,100172.56
2018-11-28T04:41:50.779Z,100167.86
2018-11-28T04:47:58.132Z,100177.60
2018-11-28T04:54:03.365Z,100180.70
2018-11-28T05:00:15.044Z,100172.05
2018-11-28T05:07:41.011Z,100170.56
2018-11-28T05:13:48.010Z,100172.89
2018-11-28T05:19:54.437Z,100176.43
2018-11-28T05:25:59.545Z,100178.94
2018-11-28T05:32:05.683Z,100182.65
2018-11-28T05:38:13.673Z,100190.66
2018-11-28T05:44:20.156Z,100181.48
2018-11-28T05:50:31.873Z,100190.67
2018-11-28T05:56:38.484Z,100186.59
2018-11-28T06:02:45.073Z,100189.41
2018-11-28T06:08:50.667Z,100199.77
2018-11-28T06:14:56.525Z,100204.47
2018-11-28T06:21:01.916Z,100207.11
2018-11-28T06:27:08.477Z,100210.44
2018-11-28T06:33:13.878Z,100218.94
2018-11-28T06:39:19.932Z,100214.34
2018-11-28T06:45:26.208Z,100214.34
2018-11-28T06:51:31.361Z,100224.23
2018-11-28T06:57:37.354Z,100222.06
2018-11-28T07:03:47.797Z,100223.25
2018-11-28T07:12:24.523Z,100231.75
2018-11-28T07:18:45.975Z,100242.50
2018-11-28T07:24:51.166Z,100247.66
2018-11-28T07:30:56.141Z,100236.92
2018-11-28T07:37:01.647Z,100238.77
2018-11-28T07:43:10.166Z,100235.45
2018-11-28T07:49:14.908Z,100227.33
2018-11-28T07:55:19.695Z,100223.90
2018-11-28T08:01:24.417Z,100218.75
2018-11-28T08:07:29.657Z,100221.27
2018-11-28T08:13:34.796Z,100226.54
2018-11-28T08:19:40.162Z,100235.59
2018-11-28T08:25:45.655Z,100235.12
2018-11-28T08:31:49.932Z,100240.86
2018-11-28T08:37:55.708Z,100237.25
2018-11-28T08:44:00.785Z,100232.16
2018-11-28T08:50:08.669Z,100238.25
2018-11-28T08:56:13.526Z,100242.02
2018-11-28T09:02:18.646Z,100233.11
2018-11-28T09:08:23.557Z,100227.33
2018-11-28T09:14:28.740Z,100227.56
2018-11-28T09:20:34.270Z,100237.58
2018-11-28T09:26:38.953Z,100235.58
2018-11-28T09:32:44.137Z,100241.27
2018-11-28T09:38:48.993Z,100247.03
2018-11-28T09:44:54.499Z,100234.94
2018-11-28T09:50:59.381Z,100230.35
2018-11-28T09:57:04.092Z,100236.13
2018-11-28T10:03:09.194Z,100225.03
2018-11-28T10:09:14.634Z,100228.40
2018-11-28T10:15:23.705Z,100223.02
2018-11-28T10:21:28.436Z,100209.14
2018-11-28T10:27:33.535Z,100202.39
2018-11-28T10:33:38.253Z,100190.22
2018-11-28T10:39:42.928Z,100168.73
2018-11-28T10:45:47.657Z,100171.48
2018-11-28T10:51:52.396Z,100171.05
2018-11-28T10:57:57.980Z,100176.80
2018-11-28T11:04:08.141Z,100176.59
2018-11-28T11:10:18.678Z,100172.52
2018-11-28T11:16:28.535Z,100168.20
2018-11-28T11:22:33.691Z,100153.97
2018-11-28T11:28:39.116Z,100160.02
2018-11-28T11:34:43.844Z,100149.37
2018-11-28T11:40:48.603Z,100156.20
2018-11-28T11:46:54.078Z,100145.75
2018-11-28T11:52:58.808Z,100162.66
2018-11-28T11:59:03.902Z,100150.90
2018-11-28T12:05:10.661Z,100141.30
2018-11-28T12:11:15.939Z,100143.99
2018-11-28T12:17:20.641Z,100132.98
2018-11-28T12:23:25.408Z,100121.98
2018-11-28T12:29:30.189Z,100116.52
2018-11-28T12:35:35.491Z,100107.91
2018-11-28T12:41:40.477Z,100103.94
2018-11-28T12:47:46.710Z,100101.20
2018-11-28T12:53:51.526Z,100098.91
2018-11-28T12:59:56.222Z,100099.68
2018-11-28T13:06:01.026Z,100098.44
2018-11-28T13:12:06.399Z,100090.67
2018-11-28T13:18:12.062Z,100083.81
2018-11-28T13:24:16.786Z,100085.22
2018-11-28T13:30:23.159Z,100082.30
2018-11-28T13:36:27.881Z,100080.06
2018-11-28T13:42:32.942Z,100084.60
2018-11-28T13:48:37.603Z,100078.66
2018-11-28T13:55:36.994Z,100073.50
2018-11-28T14:00:47.048Z,100082.62
2018-11-28T14:06:52.033Z,100079.60
2018-11-28T14:12:56.773Z,100082.74
2018-11-28T14:19:01.636Z,100084.44
2018-11-28T14:25:07.878Z,100077.20
2018-11-28T14:31:12.882Z,100075.21
2018-11-28T14:37:17.618Z,100067.00
2018-11-28T14:43:23.051Z,100059.48
2018-11-28T14:49:27.829Z,100061.70
2018-11-28T14:55:38.624Z,100057.03
2018-11-28T15:01:43.643Z,100068.83
2018-11-28T15:07:49.509Z,100061.01
2018-11-28T15:13:54.246Z,100059.69
2018-11-28T15:19:59.514Z,100054.59
2018-11-28T15:26:04.866Z,100055.30
2018-11-28T15:32:09.613Z,100048.58
2018-11-28T15:38:14.889Z,100042.61
2018-11-28T15:44:19.981Z,100048.90
2018-11-28T15:50:24.503Z,100059.12
2018-11-28T15:56:29.424Z,100050.59
2018-11-28T16:02:34.234Z,100051.08
2018-11-28T16:08:39.395Z,100040.99
2018-11-28T16:14:44.396Z,100052.59
2018-11-28T16:20:49.967Z,100060.34
2018-11-28T16:26:54.744Z,100053.72
2018-11-28T16:32:59.574Z,100045.90
2018-11-28T16:39:08.362Z,100044.31
2018-11-28T16:45:19.272Z,100041.84
2018-11-28T16:51:24.003Z,100036.44
2018-11-28T16:57:28.814Z,100037.57
2018-11-28T17:03:33.961Z,100046.84
2018-11-28T17:09:38.701Z,100040.50
2018-11-28T17:15:43.679Z,100043.81
2018-11-28T17:21:48.518Z,100037.44
2018-11-28T17:27:53.386Z,100023.73
2018-11-28T17:33:58.687Z,100016.91
2018-11-28T17:40:03.968Z,100014.91
2018-11-28T17:46:08.741Z,99999.95
2018-11-28T17:52:13.833Z,100008.58
2018-11-28T17:58:18.574Z,100003.36
2018-11-28T18:04:23.306Z,99990.52
2018-11-28T18:10:29.164Z,99981.94
2018-11-28T18:16:33.931Z,99977.08
2018-11-28T18:22:39.015Z,99978.47
2018-11-28T18:28:44.608Z,99984.30
2018-11-28T18:34:49.828Z,100008.36
2018-11-28T18:40:54.571Z,100005.03
2018-11-28T18:46:59.337Z,100016.05
2018-11-28T18:53:04.141Z,100016.68
2018-11-28T18:59:09.233Z,100026.47
2018-11-28T19:05:14.048Z,100007.53
2018-11-28T19:11:20.091Z,100015.27
2018-11-28T19:17:24.867Z,100000.48
2018-11-28T19:23:30.632Z,100006.02
2018-11-28T19:29:35.560Z,99999.83
2018-11-28T19:35:40.432Z,99988.41
2018-11-28T19:41:45.281Z,99991.19
2018-11-28T19:47:50.043Z,99985.79
2018-11-28T19:53:54.859Z,99989.00
2018-11-28T19:59:59.955Z,99988.51
2018-11-28T20:06:04.779Z,99971.95
2018-11-28T20:12:09.900Z,99970.48
2018-11-28T20:18:14.704Z,99996.42
2018-11-28T20:24:19.431Z,99992.25
2018-11-28T20:30:34.087Z,99988.01
2018-11-28T20:36:38.866Z,99989.20
2018-11-28T20:42:46.118Z,99976.49
2018-11-28T20:48:50.957Z,99970.94
2018-11-28T20:54:55.654Z,99969.13
2018-11-28T21:01:01.185Z,99968.16
2018-11-28T21:07:05.977Z,99977.86
2018-11-28T21:13:14.399Z,99978.03
2018-11-28T21:19:20.172Z,99949.53
2018-11-28T21:25:25.644Z,99957.95
2018-11-28T21:31:30.405Z,99942.33
2018-11-28T21:37:35.154Z,99933.92
2018-11-28T21:43:41.007Z,99929.85
2018-11-28T21:49:45.745Z,99926.23
2018-11-28T21:55:50.450Z,99912.02
2018-11-28T22:01:55.438Z,99914.41
2018-11-28T22:08:00.177Z,99928.33
2018-11-28T22:14:06.507Z,99933.80
2018-11-28T22:20:15.494Z,99943.47
2018-11-28T22:26:20.761Z,99932.98
2018-11-28T22:32:25.498Z,99945.04
2018-11-28T22:38:30.506Z,99948.61
2018-11-28T22:44:35.692Z,99946.75
2018-11-28T22:50:41.303Z,99936.42
2018-11-28T22:56:46.057Z,99930.59
2018-11-28T23:02:56.789Z,99936.03
2018-11-28T23:09:01.603Z,99933.53
2018-11-28T23:15:08.075Z,99941.86
2018-11-28T23:21:13.092Z,99949.01
2018-11-28T23:27:18.003Z,99940.14
2018-11-28T23:33:23.253Z,99928.45
2018-11-28T23:39:28.002Z,99911.22
2018-11-28T23:45:33.250Z,99918.78
2018-11-28T23:51:38.583Z,99910.69
2018-11-28T23:57:43.441Z,99905.84
